Logo AVAMET
Benvolgut visitant, si us plau, ingressa Recuperar contrasenya

Xàbia Tossals/Carrasquetes

Dades diàries. Acumulats / Últims 30 dies disponibles

Data Temperatura (°C) Humitat rel. (%) Pressió rel. (hPa) Vent (km/h) Precipitació
Mínima Mitjana Màxima Amplitud
tèrmica
Mínima Mitjana Màxima Mínima Mitjana Màxima Predom. Mitjana Ràfega
màxima
Total
(mm)
Índex-n
Mínima Mitjana Màxima Mínima Mitjana Màxima n
0 a 1
P0 max
mm 5'
Dades mensuals acumulades fins l'últim dia disponible
07/2019 19,9 22,0 26,1 26,4 28,7 31,0 36,2 16,3 30 73 94 1.008 1.013 1.020   2,8 45,1 2,2
Dades anuals acumulades fins l'últim dia disponible
2019 2,3 12,3 26,1 16,8 11,3 21,7 36,2 33,9 18 70 99 993 1.017 1.035   2,7 53,1 425,4
Últims 30 dies disponibles
21-07-2019 23,9     26,8     30,0 6,1 58 78 90 1.016 1.018 1.020 NNW 5,5 32,2 0,0
20-07-2019 22,3     26,0     29,6 7,3 59 79 89 1.013 1.014 1.017 ENE 3,9 30,6 0,0
19-07-2019 21,1     25,6     28,7 7,6 60 78 90 1.013 1.015 1.016 ESE 2,4 22,5 0,0
18-07-2019 21,3     26,1     31,0 9,7 37 72 90 1.013 1.014 1.015 SW 2,3 22,5 0,0
17-07-2019 20,6     25,9     31,5 10,9 50 69 82 1.011 1.012 1.013 W 2,1 22,5 0,0
16-07-2019 23,1     25,9     30,6 7,5 59 81 93 1.013 1.014 1.015 SE 1,3 20,9 0,0
15-07-2019 21,9     26,6     30,7 8,8 60 71 87 1.009 1.010 1.012 ESE 2,1 22,5 0,0
14-07-2019 23,0     26,3     29,6 6,6 61 78 90 1.009 1.010 1.011 S 3,9 25,7 0,0
13-07-2019 24,1     27,4     33,2 9,1 42 64 85 1.011 1.012 1.015 E 2,3 22,5 0,0
12-07-2019 21,6     28,0     34,4 12,8 30 51 67 1.013 1.014 1.015 WSW 2,6 27,4 0,0
11-07-2019 20,4     26,2     32,7 12,3 43 67 82 1.013 1.014 1.014 WSW 2,7 25,7 0,0
10-07-2019 20,3     25,5     30,4 10,1 51 71 85 1.013 1.014 1.015 WSW 2,4 22,5 0,0
09-07-2019 20,6     26,1     30,5 9,9 46 68 93 1.009 1.011 1.013 W 2,1 20,9 0,0
08-07-2019 23,7     26,1     29,8 6,1 64 80 90 1.008 1.010 1.013 E 1,3 24,1 2,2
07-07-2019 26,1     31,3     36,2 10,1 31 51 81 1.008 1.010 1.013 WSW 4,8 43,5 0,0
06-07-2019 22,9     27,9     35,3 12,4 39 74 94 1.010 1.012 1.015 SSE 2,6 45,1 0,0
05-07-2019 21,6     25,8     30,2 8,6 64 81 94 1.013 1.015 1.017 WSW 2,4 20,9 0,0
04-07-2019 20,4     25,6     29,5 9,1 60 76 90 1.013 1.015 1.016 ENE 3,1 27,4 0,0
03-07-2019 19,9     25,1     29,5 9,6 54 76 94 1.012 1.013 1.015 ESE 2,4 20,9 0,0
02-07-2019 21,6     25,3     28,8 7,2 67 80 93 1.013 1.014 1.015 E 2,1 22,5 0,0
01-07-2019 21,9     25,5     29,4 7,5 58 79 94 1.013 1.014 1.016 NE 3,5 32,2 0,0
30-06-2019 20,2     27,6     33,3 13,1 34 53 78 1.014 1.015 1.017 NW 2,1 27,4 0,0
29-06-2019 20,8     28,1     35,9 15,1 27 50 70 1.013 1.014 1.015 W 1,8 20,9 0,0
28-06-2019 20,9     27,1     33,7 12,8 38 57 79 1.014 1.016 1.017 W 2,3 19,3 0,0
27-06-2019 22,8     26,7     31,4 8,6 46 65 88 1.017 1.018 1.019 ENE 5,0 32,2 0,0
26-06-2019 21,9     24,3     27,8 5,9 69 81 92 1.015 1.016 1.018 NNW 9,8 35,4 0,0
25-06-2019 20,5     23,6     26,7 6,2 67 80 91 1.013 1.015 1.017 NNW 5,5 32,2 0,0
24-06-2019 19,7     23,1     25,9 6,2 65 78 89 1.012 1.013 1.014 NNW 6,0 30,6 0,0
23-06-2019 17,0     22,4     26,2 9,2 61 78 94 1.012 1.014 1.015 ESE 2,6 19,3 0,0
22-06-2019 20,2     22,6     26,2 6,0 49 78 90 1.014 1.015 1.017 NNW 4,3 25,7 0,0
Últims 13 mesos disponibles
06/2019 13,0 17,6 22,8 22,4 21,6 27,1 35,9 22,9 50 70 83 1.008 1.014 1.021 NNW 3,5 41,8 0,8
05/2019 9,8 14,2 19,7 18,7 19,8 23,6 30,1 20,3 54 72 84 1.004 1.015 1.024 WSW 2,2 41,8 12,4
04/2019 7,8 11,2 14,3 15,3 14,3 20,0 28,6 20,8 47 73 95 999 1.012 1.025 W 3,3 43,5 363,0
03/2019 6,4 9,3 13,2 14,2 13,9 19,3 28,1 21,7 45 67 91 1.010 1.022 1.029 NW 2,4 38,6 39,2
02/2019 4,3 7,3 11,5 12,0 13,0 17,4 22,8 18,5 38 70 86 995 1.024 1.033 NW 2,2 53,1 1,0
01/2019 2,3 7,0 11,9 11,3 11,3 16,4 21,5 19,2 40 65 87 1.003 1.018 1.030 NW 2,2 46,7 6,8
12/2018 5,6 8,5 10,9 12,8 13,1 18,5 22,3 16,7 57 77 88 1.008 1.024 1.030 NW 0,8 45,1 4,6
11/2018 7,2 11,3 17,3 14,9 15,1 19,2 23,8 16,6 57 76 94 999 1.015 1.022 NW 1,8 48,3 115,4
10/2018 8,7 15,0 18,4 18,8 14,8 23,2 28,5 19,8 45 76 89 999 1.014 1.024 1,8 37,0 127,2
09/2018 15,0 20,6 23,2 24,2 22,9 28,5 31,5 16,5 73 82 92 1.011 1.018 1.026 1,8 32,2 140,4
08/2018 19,1 22,6 25,8 26,9 25,3 32,0 37,5 18,4 53 75 86 1.011 1.015 1.020 1,7 35,4 131,6
07/2018 19,9 21,9 24,8 26,6 28,4 31,8 35,1 15,2 2,6 32,2 0,0
06/2018 14,0 18,4 21,9 23,4 23,6 28,6 32,8 18,8 2,4 29,0 27,2
Tots els anys disponibles
2018 2,1 14,2 25,8 18,4 8,1 23,2 37,5 35,4 37 76 94 999 1.017 1.030 NW 2,2 62,8 778,8
2017 0,4 14,1 26,9 18,7 8,9 23,3 35,9 35,5 38 71 96 999 1.018 1.036 0,0 68,0 720,4
2016 1,9 14,4 24,3 18,7 12,2 23,1 38,2 36,3 35 70 94 995 1.017 1.036 56,0 475,4
2015 3,8 12,1 21,1 16,4 13,1 20,7 30,4 26,6 44 78 91 1.008 1.023 1.036 48,0 232,2
2014
Temperatura (°C)
Humitat relativa (%)
Velocitat del vent i ràfega màxima (km/h)
Direcció del vent (°)
Pressió (hPa)
Precipitació (mm)
Nota sobre les dades: s'avisa a l'usuari de la provisionalitat i no oficialitat d'aquestes dades
Logo AVAMET blanc
Web allotjada a Sollutia
Llicència de Creative CommonsLa web d'AVAMET i els seus continguts estan subjectes a una llicència de
Reconeixement - No Comercial - Compartir igual
Properes estacions: Altea - Club Nàutic d'Altea (Soci), Ares del Maestrat (Ajuntament Soci),      - - - - -      Últimes estacions: Catadau - Urb. Lloma Molina (Inforatge), Ontinyent - El Pilar (Soci), Asp - Poliesportiu (Soci) - - -